Time;durP1;ratioP1;P1;durP2;ratioP2;P2;SDS_P1;SDS_P2;PMS_P1;PMS_P2;Temp;Humidity;BMP_temperature;BMP_pressure;BME280_temperature;BME280_humidity;BME280_pressure;Samples;Min_cycle;Max_cycle;Signal;HPM_P1;HPM_P2
2021/09/21 00:01:54;;;;;;;6.38;5.03;;;;;;;13.05;64.59;101286.03;5058774;28;20140;-54
2021/09/21 00:05:10;;;;;;;6.47;4.80;;;;;;;13.09;64.27;101292.06;5044610;28;20072;-50
2021/09/21 00:07:37;;;;;;;6.88;5.00;;;;;;;13.10;64.01;101301.78;5047635;28;21306;-52
2021/09/21 00:10:06;;;;;;;6.30;4.75;;;;;;;13.04;63.79;101294.94;5040113;28;20127;-52
2021/09/21 00:12:33;;;;;;;4.72;4.13;;;;;;;12.95;63.81;101282.91;5052733;28;20045;-52
2021/09/21 00:15:00;;;;;;;5.10;4.28;;;;;;;12.92;64.11;101282.16;5053167;28;20123;-51
2021/09/21 00:17:27;;;;;;;8.30;5.13;;;;;;;12.96;65.26;101284.63;5050655;28;20053;-51
2021/09/21 00:19:53;;;;;;;6.18;4.78;;;;;;;12.87;65.73;101261.09;5052190;28;20052;-52
2021/09/21 00:22:20;;;;;;;5.95;4.80;;;;;;;13.00;65.39;101280.06;5053350;28;20041;-51
2021/09/21 00:24:46;;;;;;;7.28;4.35;;;;;;;13.02;63.36;101285.31;5057603;28;20041;-51
2021/09/21 00:27:13;;;;;;;6.53;4.40;;;;;;;13.04;63.15;101284.31;5042296;28;20080;-51
2021/09/21 00:29:39;;;;;;;4.43;4.03;;;;;;;13.02;62.92;101280.00;5053205;28;20056;-51
2021/09/21 00:32:13;;;;;;;4.55;3.78;;;;;;;12.97;62.70;101280.19;5049666;28;20055;-51
2021/09/21 00:34:42;;;;;;;6.85;4.20;;;;;;;12.93;62.00;101279.44;5055633;28;20059;-53
2021/09/21 00:37:10;;;;;;;4.40;3.75;;;;;;;13.00;62.52;101303.97;5053301;28;20422;-51
2021/09/21 00:39:38;;;;;;;6.13;4.40;;;;;;;12.97;62.37;101297.00;5051113;28;20056;-53
2021/09/21 00:42:06;;;;;;;5.00;4.22;;;;;;;12.95;62.53;101306.81;5049774;28;20049;-50
2021/09/21 00:44:34;;;;;;;7.40;4.30;;;;;;;12.93;63.17;101307.81;5050003;28;20494;-51
2021/09/21 00:47:03;;;;;;;4.70;4.13;;;;;;;12.95;61.90;101309.47;5052137;28;20048;-51
2021/09/21 00:49:29;;;;;;;5.68;4.05;;;;;;;12.81;62.24;101292.38;5049458;28;20044;-52
2021/09/21 00:51:57;;;;;;;5.63;3.90;;;;;;;12.89;62.74;101303.56;5051485;28;20055;-51
2021/09/21 00:54:23;;;;;;;5.38;4.13;;;;;;;12.87;63.02;101311.63;5055713;28;20082;-51
2021/09/21 00:56:51;;;;;;;5.75;4.00;;;;;;;12.94;61.66;101307.75;5051956;28;20047;-51
2021/09/21 00:59:17;;;;;;;5.38;3.92;;;;;;;12.89;62.34;101309.75;5052323;28;20059;-52
2021/09/21 01:01:44;;;;;;;5.85;3.80;;;;;;;12.89;62.07;101317.75;5040234;28;20087;-51
2021/09/21 01:04:10;;;;;;;6.30;4.10;;;;;;;12.91;61.83;101310.53;5052368;28;20754;-51
2021/09/21 01:06:37;;;;;;;5.00;3.92;;;;;;;12.88;61.79;101310.69;5052755;28;20060;-52
2021/09/21 01:09:04;;;;;;;4.75;3.55;;;;;;;12.87;61.32;101314.28;5051801;28;20513;-53
2021/09/21 01:11:31;;;;;;;4.97;4.15;;;;;;;12.85;61.71;101316.13;5052125;28;20045;-50
2021/09/21 01:13:57;;;;;;;4.72;4.30;;;;;;;12.84;61.82;101310.88;5058476;28;20048;-51
2021/09/21 01:16:23;;;;;;;4.35;3.95;;;;;;;12.84;62.25;101322.38;5048816;28;20053;-52
2021/09/21 01:18:50;;;;;;;6.68;3.67;;;;;;;12.81;61.73;101314.50;5039534;28;20048;-50
2021/09/21 01:21:17;;;;;;;5.18;4.20;;;;;;;12.84;61.34;101319.72;5043536;28;20071;-51
2021/09/21 01:24:10;;;;;;;4.38;3.95;;;;;;;12.81;61.37;101319.84;5050544;28;20091;-52
2021/09/21 01:27:01;;;;;;;4.68;3.90;;;;;;;12.81;61.50;101330.47;5055252;28;20047;-51
2021/09/21 01:29:27;;;;;;;5.78;4.18;;;;;;;12.80;61.78;101325.22;5053045;28;20131;-51
2021/09/21 01:31:54;;;;;;;6.38;4.15;;;;;;;12.76;62.02;101328.91;5053177;28;20061;-52
2021/09/21 01:34:20;;;;;;;4.53;3.63;;;;;;;12.73;62.38;101332.59;5055042;28;20044;-51
2021/09/21 01:36:48;;;;;;;5.20;4.03;;;;;;;12.77;61.81;101335.97;5058062;28;20102;-50
2021/09/21 01:39:15;;;;;;;5.63;3.90;;;;;;;12.75;61.53;101336.03;5051917;28;20202;-50
2021/09/21 01:41:42;;;;;;;7.18;3.88;;;;;;;12.74;61.76;101338.78;5053875;28;20064;-51
2021/09/21 01:44:08;;;;;;;6.80;4.13;;;;;;;12.72;62.14;101332.66;5052583;28;20059;-51
2021/09/21 01:46:36;;;;;;;5.78;3.80;;;;;;;12.71;62.40;101337.09;5052525;28;20076;-51
2021/09/21 01:49:02;;;;;;;6.45;4.20;;;;;;;12.73;62.83;101331.72;5053100;28;20048;-52
2021/09/21 01:51:32;;;;;;;5.05;3.97;;;;;;;12.73;62.21;101343.22;5052343;28;20056;-52
2021/09/21 01:59:10;;;;;;;4.70;4.00;;;;;;;12.67;63.72;101334.63;5055949;28;20535;-50
2021/09/21 02:01:37;;;;;;;4.30;3.90;;;;;;;12.63;62.45;101331.22;5051506;28;20049;-51
2021/09/21 02:04:07;;;;;;;4.45;3.70;;;;;;;12.70;61.81;101346.00;5055493;28;20044;-51
2021/09/21 02:06:40;;;;;;;5.25;4.35;;;;;;;12.71;62.71;101349.53;5056744;28;20444;-50
2021/09/21 02:09:09;;;;;;;4.55;4.00;;;;;;;12.71;61.90;101345.06;5049721;28;20055;-51
2021/09/21 02:11:37;;;;;;;5.80;4.15;;;;;;;12.71;61.58;101339.75;5049212;28;20056;-51
2021/09/21 02:14:07;;;;;;;4.30;3.90;;;;;;;12.74;61.69;101339.63;5054043;28;20984;-51
2021/09/21 02:16:34;;;;;;;4.90;4.25;;;;;;;12.68;61.81;101331.91;5055387;28;20048;-52
2021/09/21 02:19:01;;;;;;;5.03;4.07;;;;;;;12.70;63.79;101335.38;5054788;28;20044;-51
2021/09/21 02:21:27;;;;;;;4.60;3.90;;;;;;;12.73;61.69;101329.06;5040824;28;20052;-51
2021/09/21 02:23:56;;;;;;;5.47;4.28;;;;;;;12.74;61.49;101334.31;5057361;28;20048;-52
2021/09/21 02:26:23;;;;;;;5.15;4.20;;;;;;;12.74;61.07;101336.13;5051319;28;20054;-52
2021/09/21 02:28:50;;;;;;;4.22;3.65;;;;;;;12.72;62.16;101340.63;5057392;28;20044;-52
2021/09/21 02:31:17;;;;;;;6.85;4.13;;;;;;;12.68;61.70;101337.22;5052836;28;20045;-53
2021/09/21 02:33:43;;;;;;;5.22;4.07;;;;;;;12.67;61.60;101338.13;5053992;28;20040;-52
2021/09/21 02:36:10;;;;;;;4.95;3.90;;;;;;;12.65;61.21;101337.34;5058514;28;20052;-52
2021/09/21 02:38:37;;;;;;;4.18;3.78;;;;;;;12.64;61.76;101338.25;5055783;28;20041;-52
2021/09/21 02:41:07;;;;;;;4.97;4.10;;;;;;;12.62;61.72;101338.31;5054414;28;20449;-53
2021/09/21 02:43:34;;;;;;;4.40;4.00;;;;;;;12.50;61.42;101322.00;5043722;28;20048;-53
2021/09/21 02:46:01;;;;;;;4.57;3.92;;;;;;;12.61;61.71;101349.88;5046825;28;20060;-52
2021/09/21 02:48:29;;;;;;;5.38;3.75;;;;;;;12.64;61.09;101348.88;5052086;28;20056;-51
2021/09/21 02:50:55;;;;;;;8.85;4.43;;;;;;;12.53;61.61;101335.19;5060312;28;20048;-52
2021/09/21 02:53:22;;;;;;;4.22;3.80;;;;;;;12.58;61.59;101355.34;5057280;28;20060;-51
2021/09/21 02:55:49;;;;;;;5.22;3.65;;;;;;;12.56;62.03;101366.94;5057513;28;20086;-50
2021/09/21 02:58:15;;;;;;;4.72;4.18;;;;;;;12.59;61.91;101367.66;5056150;28;20052;-50
2021/09/21 03:00:43;;;;;;;6.30;3.97;;;;;;;12.55;62.23;101362.56;5051080;28;20045;-50
2021/09/21 03:03:10;;;;;;;6.07;4.00;;;;;;;12.55;64.25;101360.75;5053136;28;20105;-53
2021/09/21 03:05:43;;;;;;;4.63;4.22;;;;;;;12.54;62.48;101367.00;5053373;28;20052;-50
2021/09/21 03:18:39;;;;;;;5.47;3.70;;;;;;;12.40;61.99;101374.66;5055559;28;20746;-51
2021/09/21 03:21:06;;;;;;;5.20;4.13;;;;;;;12.34;63.45;101376.66;5056749;28;20418;-52
2021/09/21 03:23:33;;;;;;;5.22;4.20;;;;;;;12.30;62.55;101381.22;5051085;28;20048;-52
2021/09/21 03:26:00;;;;;;;4.60;3.50;;;;;;;12.31;62.20;101393.56;5055633;28;20419;-51
2021/09/21 03:28:26;;;;;;;5.53;3.83;;;;;;;12.22;62.78;101389.50;5054259;28;20052;-51
2021/09/21 03:30:53;;;;;;;7.18;4.18;;;;;;;12.19;61.94;101388.75;5055489;28;20462;-51
2021/09/21 03:33:19;;;;;;;6.55;4.57;;;;;;;12.18;62.28;101387.00;5027854;28;20056;-52
2021/09/21 03:35:46;;;;;;;7.05;4.20;;;;;;;12.13;62.15;101384.50;5053872;28;20429;-54
2021/09/21 03:38:12;;;;;;;5.40;4.57;;;;;;;12.05;62.41;101388.41;5053315;28;20067;-51
2021/09/21 03:40:39;;;;;;;5.38;3.92;;;;;;;12.00;62.63;101377.94;5053996;28;20044;-52
2021/09/21 03:43:06;;;;;;;4.68;4.18;;;;;;;12.01;63.14;101390.28;5053962;28;20059;-51
2021/09/21 03:45:32;;;;;;;6.50;4.22;;;;;;;11.97;63.68;101396.63;5056913;28;20650;-51
2021/09/21 03:47:59;;;;;;;4.90;4.30;;;;;;;11.91;63.78;101386.25;5059103;28;20493;-53
2021/09/21 03:50:26;;;;;;;5.78;4.25;;;;;;;11.93;62.76;101387.94;5053323;28;20502;-51
2021/09/21 03:52:53;;;;;;;5.70;4.45;;;;;;;11.89;63.63;101388.97;5053340;28;20049;-53
2021/09/21 03:55:20;;;;;;;4.75;4.20;;;;;;;11.89;63.68;101396.94;5054262;28;20048;-51
2021/09/21 03:57:46;;;;;;;5.13;4.28;;;;;;;11.84;63.60;101398.88;5053446;28;20059;-51
2021/09/21 04:00:13;;;;;;;5.47;4.53;;;;;;;11.80;63.48;101393.75;5057441;28;20044;-50
2021/09/21 04:02:40;;;;;;;6.15;4.40;;;;;;;11.68;64.99;101397.66;5056502;28;20063;-51
2021/09/21 04:05:08;;;;;;;6.40;4.47;;;;;;;11.61;64.47;101396.16;5059181;28;20051;-51
2021/09/21 04:07:35;;;;;;;6.25;4.85;;;;;;;11.49;65.12;101399.25;5051072;28;20453;-53
2021/09/21 04:10:02;;;;;;;5.20;4.40;;;;;;;11.45;65.47;101405.56;5048835;28;20521;-50
2021/09/21 04:12:28;;;;;;;6.78;4.70;;;;;;;11.34;65.41;101405.91;5052955;28;20053;-52
2021/09/21 04:14:55;;;;;;;7.60;4.70;;;;;;;11.26;66.08;101402.66;5052660;28;20260;-52
2021/09/21 04:17:22;;;;;;;7.85;4.40;;;;;;;11.11;66.45;101403.19;5055851;28;20040;-51
2021/09/21 04:19:48;;;;;;;5.70;4.85;;;;;;;10.90;66.60;101381.75;5058173;28;20053;-52
2021/09/21 04:22:15;;;;;;;5.00;4.50;;;;;;;10.92;66.98;101404.69;5059740;28;20055;-51
2021/09/21 04:24:41;;;;;;;4.90;4.40;;;;;;;10.88;67.00;101407.44;5058023;28;20052;-52
2021/09/21 04:27:10;;;;;;;5.28;4.55;;;;;;;10.80;68.78;101406.84;5056123;28;20246;-50
2021/09/21 04:29:37;;;;;;;6.43;5.25;;;;;;;10.73;67.94;101415.00;5056766;28;20056;-53
2021/09/21 04:32:03;;;;;;;7.68;5.20;;;;;;;10.65;68.30;101417.91;5060489;28;20056;-52
2021/09/21 04:34:30;;;;;;;6.07;4.88;;;;;;;10.61;67.97;101410.09;5061283;28;20051;-51
2021/09/21 04:36:58;;;;;;;7.25;4.93;;;;;;;10.52;68.50;101403.31;5061664;28;20045;-51
2021/09/21 04:39:25;;;;;;;6.45;4.97;;;;;;;10.48;68.51;101414.91;5054954;28;20036;-50
2021/09/21 04:41:53;;;;;;;6.03;4.88;;;;;;;10.43;68.90;101412.38;5052524;28;20498;-51
2021/09/21 04:44:19;;;;;;;6.47;4.70;;;;;;;10.41;68.76;101413.34;5045472;28;20040;-51
2021/09/21 04:46:46;;;;;;;5.75;4.68;;;;;;;10.33;69.38;101416.25;5052762;28;20044;-52
2021/09/21 04:49:13;;;;;;;5.70;4.85;;;;;;;10.28;69.03;101430.50;5054183;28;20052;-51
2021/09/21 04:51:41;;;;;;;5.70;4.93;;;;;;;10.25;69.69;101433.25;5050361;28;20055;-52
2021/09/21 04:54:08;;;;;;;7.95;4.90;;;;;;;10.19;69.63;101437.81;5046379;28;20052;-52
2021/09/21 04:56:34;;;;;;;7.20;4.88;;;;;;;10.15;70.43;101443.22;5050327;28;20040;-53
2021/09/21 04:59:01;;;;;;;8.15;5.53;;;;;;;10.10;71.00;101439.81;5052820;28;20051;-52
2021/09/21 05:01:28;;;;;;;7.55;5.07;;;;;;;10.08;71.51;101444.28;5043321;28;20056;-52
2021/09/21 05:03:54;;;;;;;6.47;4.93;;;;;;;10.07;71.62;101443.41;5050788;28;20153;-52
2021/09/21 05:06:21;;;;;;;6.38;5.10;;;;;;;10.04;70.84;101462.03;5048784;28;23582;-51
2021/09/21 05:08:48;;;;;;;6.57;5.30;;;;;;;10.05;73.78;101463.78;5047377;28;20040;-51
2021/09/21 05:11:15;;;;;;;9.02;5.28;;;;;;;10.03;71.48;101468.25;5051232;28;20049;-51
2021/09/21 05:13:41;;;;;;;5.88;5.15;;;;;;;9.99;70.81;101471.88;5051346;28;20041;-52
2021/09/21 05:16:07;;;;;;;8.63;5.07;;;;;;;9.96;71.33;101471.97;5054066;28;20060;-52
2021/09/21 05:18:34;;;;;;;5.70;4.90;;;;;;;9.94;71.11;101464.97;5049163;28;20049;-52
2021/09/21 05:21:01;;;;;;;6.05;5.22;;;;;;;9.88;71.58;101473.09;5048898;28;20044;-53
2021/09/21 05:23:27;;;;;;;7.47;5.07;;;;;;;9.78;71.88;101464.50;5038893;28;20087;-52
2021/09/21 05:25:54;;;;;;;6.93;5.20;;;;;;;9.90;71.44;101481.84;5047734;28;20044;-52
2021/09/21 05:28:20;;;;;;;7.13;5.20;;;;;;;9.84;70.97;101496.97;5041419;28;20056;-53
2021/09/21 05:30:47;;;;;;;7.85;4.93;;;;;;;9.79;72.58;101492.69;5042696;28;20044;-52
2021/09/21 05:33:13;;;;;;;5.95;5.35;;;;;;;9.82;71.77;101497.91;5047561;28;20057;-51
2021/09/21 05:35:39;;;;;;;8.95;4.97;;;;;;;9.83;72.32;101513.75;5050537;28;20059;-52
2021/09/21 05:38:07;;;;;;;7.03;5.50;;;;;;;9.87;71.39;101511.91;5052505;28;20044;-52
2021/09/21 05:40:33;;;;;;;10.05;5.45;;;;;;;9.87;70.85;101525.13;5053882;28;20048;-51
2021/09/21 05:43:00;;;;;;;6.22;4.95;;;;;;;9.82;71.09;101524.38;5052848;28;20044;-51
2021/09/21 05:45:26;;;;;;;7.38;5.28;;;;;;;9.84;72.02;101527.84;5051980;28;20064;-51
2021/09/21 05:47:54;;;;;;;8.95;5.53;;;;;;;9.83;71.44;101534.91;5045125;28;20053;-51
2021/09/21 05:50:21;;;;;;;8.02;5.40;;;;;;;9.90;70.43;101537.41;5049336;28;20083;-53
2021/09/21 05:52:48;;;;;;;7.63;5.35;;;;;;;9.92;69.67;101533.78;5062619;28;20048;-52
2021/09/21 05:55:15;;;;;;;11.18;5.18;;;;;;;9.95;69.50;101543.44;5057976;28;20044;-51
2021/09/21 05:57:44;;;;;;;8.82;5.20;;;;;;;9.96;69.10;101550.47;5059158;28;20037;-51
2021/09/21 06:00:12;;;;;;;5.22;4.72;;;;;;;9.94;69.58;101549.63;5054945;28;20689;-52
2021/09/21 06:02:39;;;;;;;6.35;5.10;;;;;;;9.98;69.16;101543.34;5057374;28;20048;-52
2021/09/21 06:05:08;;;;;;;5.75;4.88;;;;;;;9.95;69.19;101552.25;5051490;28;20050;-52
2021/09/21 06:07:34;;;;;;;7.22;4.78;;;;;;;10.03;69.27;101566.16;5048317;28;20044;-52
2021/09/21 06:10:02;;;;;;;6.30;4.70;;;;;;;10.06;68.82;101568.72;5055919;28;20052;-52
2021/09/21 06:12:29;;;;;;;6.18;4.80;;;;;;;10.12;68.89;101581.78;5047566;28;20155;-50
2021/09/21 06:14:56;;;;;;;7.32;4.97;;;;;;;10.19;68.15;101583.41;5053882;28;20508;-52
2021/09/21 06:17:22;;;;;;;7.15;4.82;;;;;;;10.16;68.21;101591.41;5060049;28;20056;-52
2021/09/21 06:19:49;;;;;;;6.28;4.20;;;;;;;10.21;68.46;101604.56;5044213;28;20048;-52
2021/09/21 06:22:15;;;;;;;6.57;4.80;;;;;;;10.30;67.77;101608.72;5040362;28;20045;-51
2021/09/21 06:24:41;;;;;;;7.05;4.53;;;;;;;10.34;67.35;101613.91;5044990;28;20049;-52
2021/09/21 06:27:08;;;;;;;6.60;4.72;;;;;;;10.33;67.52;101606.00;5048278;28;20059;-50
2021/09/21 06:29:34;;;;;;;6.43;4.78;;;;;;;10.36;67.71;101616.50;5051474;28;20052;-52
2021/09/21 06:32:01;;;;;;;5.50;4.45;;;;;;;10.37;67.48;101626.19;5049377;28;20954;-51
2021/09/21 06:34:28;;;;;;;6.75;4.82;;;;;;;10.44;67.19;101630.41;5049763;28;20056;-53
2021/09/21 06:36:54;;;;;;;8.70;4.82;;;;;;;10.47;67.72;101628.53;5047947;28;20726;-52
2021/09/21 06:39:21;;;;;;;6.70;5.38;;;;;;;10.58;66.78;101630.91;5050000;28;20048;-51
2021/09/21 06:41:48;;;;;;;7.88;5.28;;;;;;;10.60;66.86;101631.72;5046125;28;20826;-51
2021/09/21 06:44:15;;;;;;;9.15;4.97;;;;;;;10.67;67.88;101619.19;5052218;28;20575;-52
2021/09/21 06:46:41;;;;;;;6.63;5.18;;;;;;;10.65;66.90;101592.75;5046958;28;20056;-51
2021/09/21 06:49:08;;;;;;;7.97;4.95;;;;;;;10.81;66.11;101604.63;5052242;28;20075;-52
2021/09/21 06:51:34;;;;;;;8.00;5.18;;;;;;;10.88;67.14;101605.31;5049501;28;20044;-52
2021/09/21 06:54:01;;;;;;;7.13;4.70;;;;;;;10.94;66.37;101610.44;5049106;28;20055;-51
2021/09/21 06:56:28;;;;;;;9.25;4.93;;;;;;;11.03;65.65;101604.88;5046569;28;20064;-52
2021/09/21 06:58:56;;;;;;;9.65;4.78;;;;;;;11.05;65.94;101600.38;5052136;28;20636;-53
2021/09/21 07:01:25;;;;;;;6.80;4.60;;;;;;;11.10;65.53;101595.81;5054263;28;20057;-51
2021/09/21 07:03:51;;;;;;;6.00;4.88;;;;;;;11.20;66.54;101588.44;5061869;28;20063;-51
2021/09/21 07:06:18;;;;;;;6.13;4.55;;;;;;;11.31;65.21;101591.66;5054102;28;20040;-52
2021/09/21 07:08:45;;;;;;;6.35;4.47;;;;;;;11.45;64.33;101593.88;5060294;28;20052;-51
2021/09/21 07:11:12;;;;;;;8.43;4.72;;;;;;;11.57;64.20;101586.41;5064500;28;20040;-51
2021/09/21 07:13:39;;;;;;;6.72;4.65;;;;;;;11.68;63.99;101595.78;5062492;28;20040;-50
2021/09/21 07:16:06;;;;;;;7.07;4.50;;;;;;;11.80;63.47;101608.72;5061538;28;20055;-51
2021/09/21 07:18:33;;;;;;;9.57;4.97;;;;;;;11.97;63.71;101606.34;5057221;28;20049;-53
2021/09/21 07:20:59;;;;;;;4.95;4.32;;;;;;;12.11;62.91;101593.50;5057348;28;20053;-51
2021/09/21 07:23:26;;;;;;;8.65;4.75;;;;;;;12.21;61.96;101604.66;5063758;28;20041;-52
2021/09/21 07:25:52;;;;;;;6.90;4.47;;;;;;;12.31;61.40;101614.03;5065771;28;20056;-52
2021/09/21 07:28:19;;;;;;;8.13;4.47;;;;;;;12.39;60.77;101603.16;5060871;28;20055;-54
2021/09/21 07:30:45;;;;;;;5.47;4.32;;;;;;;12.40;60.86;101597.78;5061969;28;20044;-53
2021/09/21 07:33:16;;;;;;;7.35;4.43;;;;;;;12.44;60.14;101586.09;5060590;28;20045;-51
2021/09/21 07:35:44;;;;;;;7.10;4.70;;;;;;;12.43;60.98;101602.13;5052976;28;20041;-55
2021/09/21 07:38:11;;;;;;;6.57;4.70;;;;;;;12.48;61.51;101608.13;5060977;28;20056;-51
2021/09/21 07:40:38;;;;;;;7.38;4.65;;;;;;;12.54;61.31;101610.56;5056606;28;20063;-50
2021/09/21 07:43:05;;;;;;;5.10;4.00;;;;;;;12.59;61.80;101611.28;5059144;28;20048;-51
2021/09/21 07:45:33;;;;;;;6.45;4.22;;;;;;;12.69;60.80;101615.34;5063381;28;20597;-50
2021/09/21 07:48:01;;;;;;;8.23;4.35;;;;;;;12.70;60.67;101618.88;5060490;28;20049;-50
2021/09/21 07:50:28;;;;;;;7.53;4.93;;;;;;;12.68;60.68;101610.94;5062806;28;20052;-53
2021/09/21 07:52:56;;;;;;;6.22;4.20;;;;;;;12.82;62.09;101631.69;5057669;28;20047;-50
2021/09/21 07:55:23;;;;;;;5.90;4.50;;;;;;;12.92;60.51;101633.94;5062908;28;20594;-51
2021/09/21 07:57:49;;;;;;;9.05;4.40;;;;;;;12.98;60.40;101631.06;5060726;28;21351;-52
2021/09/21 08:00:19;;;;;;;9.20;4.57;;;;;;;13.00;59.95;101633.69;5054001;28;20049;-53
2021/09/21 08:03:10;;;;;;;9.00;4.30;;;;;;;13.06;59.92;101629.94;5059403;28;20137;-50
2021/09/21 08:05:37;;;;;;;6.03;4.20;;;;;;;12.98;59.78;101611.59;5056734;28;20479;-52
2021/09/21 08:08:04;;;;;;;4.90;3.78;;;;;;;13.19;59.79;101640.09;5056696;28;20053;-53
2021/09/21 08:10:36;;;;;;;14.88;4.25;;;;;;;13.33;60.01;101624.47;5058915;28;20136;-51
2021/09/21 08:13:03;;;;;;;5.07;4.07;;;;;;;13.56;59.03;101628.84;5055955;28;20045;-50
2021/09/21 08:15:30;;;;;;;6.38;4.28;;;;;;;13.71;59.18;101627.38;5053571;28;20044;-52
2021/09/21 08:17:58;;;;;;;6.65;4.20;;;;;;;13.86;57.79;101645.38;5057167;28;20049;-50
2021/09/21 08:20:25;;;;;;;6.15;4.15;;;;;;;14.04;57.88;101651.75;5056867;28;20048;-51
2021/09/21 08:22:53;;;;;;;7.57;4.03;;;;;;;14.23;57.37;101650.06;5055936;28;20055;-50
2021/09/21 08:25:20;;;;;;;6.55;3.67;;;;;;;14.36;57.06;101645.94;5060945;28;20052;-51
2021/09/21 08:27:47;;;;;;;6.35;4.47;;;;;;;14.53;57.90;101649.72;5053552;28;20040;-51
2021/09/21 08:30:28;;;;;;;6.38;3.95;;;;;;;14.68;56.42;101663.25;5057493;28;20202;-51
2021/09/21 08:32:54;;;;;;;5.05;3.53;;;;;;;14.74;56.08;101670.13;5058222;28;20047;-51
2021/09/21 08:35:21;;;;;;;6.85;3.97;;;;;;;14.77;56.30;101678.00;5052819;28;20103;-52
2021/09/21 08:37:47;;;;;;;7.72;4.60;;;;;;;14.75;56.54;101687.84;5054990;28;20059;-51
2021/09/21 08:40:14;;;;;;;4.10;3.70;;;;;;;14.65;55.84;101675.84;5060139;28;20562;-52
2021/09/21 08:42:40;;;;;;;6.72;3.63;;;;;;;14.83;56.40;101701.69;5057024;28;20052;-52
2021/09/21 08:45:08;;;;;;;5.38;3.80;;;;;;;14.91;55.33;101704.91;5060533;28;20047;-51
2021/09/21 08:47:36;;;;;;;6.40;3.58;;;;;;;15.03;54.00;101701.69;5055396;28;20760;-52
2021/09/21 08:50:04;;;;;;;14.13;4.15;;;;;;;15.25;54.20;101698.94;5057087;28;20039;-51
2021/09/21 08:52:31;;;;;;;6.47;3.67;;;;;;;15.74;52.28;101696.69;5054991;28;20049;-51
2021/09/21 08:54:58;;;;;;;6.03;3.80;;;;;;;16.07;50.98;101700.34;5060102;28;20147;-51
2021/09/21 08:57:25;;;;;;;6.93;4.15;;;;;;;16.46;50.07;101693.97;5060258;28;20064;-52
2021/09/21 08:59:54;;;;;;;5.43;3.45;;;;;;;16.72;49.03;101676.63;5037459;28;20402;-52
2021/09/21 09:02:22;;;;;;;8.10;3.72;;;;;;;17.04;48.37;101683.81;5056253;28;20040;-52
2021/09/21 09:05:04;;;;;;;7.75;3.40;;;;;;;17.25;47.26;101670.22;5062180;28;20548;-52
2021/09/21 09:07:35;;;;;;;5.97;3.75;;;;;;;17.48;47.12;101676.03;5057494;28;20055;-51
2021/09/21 09:10:06;;;;;;;12.98;4.05;;;;;;;17.78;46.71;101672.63;5059785;28;20060;-52
2021/09/21 09:12:35;;;;;;;9.63;4.18;;;;;;;17.93;46.14;101687.84;5054002;28;20408;-51
2021/09/21 09:15:14;;;;;;;7.15;3.88;;;;;;;18.29;45.74;101682.16;5057222;28;20051;-53
2021/09/21 09:17:54;;;;;;;4.18;3.40;;;;;;;18.53;45.73;101693.25;5058870;28;20036;-52
2021/09/21 09:20:50;;;;;;;3.88;3.00;;;;;;;18.80;44.14;101690.75;5056458;28;20052;-52
2021/09/21 09:23:16;;;;;;;4.85;2.78;;;;;;;18.93;43.65;101686.38;5034190;28;20059;-50
2021/09/21 09:25:45;;;;;;;3.25;2.90;;;;;;;19.00;42.85;101690.41;5062009;28;20048;-52
2021/09/21 09:28:21;;;;;;;4.05;3.08;;;;;;;19.16;43.06;101687.63;5061256;28;20049;-51
2021/09/21 09:30:48;;;;;;;4.80;2.85;;;;;;;19.60;42.62;101690.22;5065637;28;20493;-53
2021/09/21 09:33:17;;;;;;;4.28;2.90;;;;;;;19.76;41.00;101690.09;5061568;28;20052;-50
2021/09/21 09:35:45;;;;;;;5.30;2.83;;;;;;;19.85;42.40;101693.03;5064471;28;20111;-51
2021/09/21 09:38:18;;;;;;;5.03;2.83;;;;;;;20.04;41.21;101689.16;5064609;28;20064;-51
2021/09/21 09:40:48;;;;;;;4.60;2.90;;;;;;;20.06;40.95;101676.47;5063458;28;20041;-52
2021/09/21 09:43:15;;;;;;;;;;;;;;;19.77;41.58;101673.88;5057429;28;20632;-51
2021/09/21 09:45:45;;;;;;;5.18;2.92;;;;;;;19.88;42.11;101692.84;5061576;28;20374;-52
2021/09/21 09:48:14;;;;;;;5.78;3.10;;;;;;;20.17;40.63;101703.50;5060329;28;20056;-52
2021/09/21 09:50:42;;;;;;;4.25;2.95;;;;;;;20.11;41.94;101704.78;5062739;28;20666;-51
2021/09/21 09:53:15;;;;;;;5.45;3.08;;;;;;;20.32;39.28;101705.16;5060631;28;20047;-52
2021/09/21 09:55:45;;;;;;;3.97;2.72;;;;;;;20.36;40.38;101704.03;5060342;28;20052;-52
2021/09/21 09:58:16;;;;;;;6.55;2.72;;;;;;;20.92;39.34;101693.94;5056780;28;20594;-52
2021/09/21 10:00:44;;;;;;;4.72;3.00;;;;;;;21.31;39.31;101696.53;5057132;28;20060;-51
2021/09/21 10:03:11;;;;;;;4.35;3.30;;;;;;;20.93;38.65;101693.81;5063350;28;20044;-52
2021/09/21 10:05:40;;;;;;;3.72;3.10;;;;;;;20.53;39.73;101701.06;5062849;28;20060;-51
2021/09/21 10:08:09;;;;;;;6.05;3.45;;;;;;;20.60;39.48;101694.31;5058239;28;20094;-52
2021/09/21 10:10:39;;;;;;;5.43;2.95;;;;;;;20.60;40.13;101691.63;5058468;28;20049;-50
2021/09/21 10:13:09;;;;;;;6.70;3.00;;;;;;;20.29;40.70;101690.13;5061015;28;20114;-51
2021/09/21 10:15:36;;;;;;;7.28;3.15;;;;;;;20.38;40.21;101687.78;5062920;28;20130;-52
2021/09/21 10:18:03;;;;;;;5.78;2.88;;;;;;;20.62;40.75;101689.66;5065658;28;20055;-52
2021/09/21 10:20:33;;;;;;;5.93;2.78;;;;;;;20.92;39.89;101685.84;5062943;28;20101;-52
2021/09/21 10:23:01;;;;;;;4.25;3.00;;;;;;;21.62;37.94;101679.00;5063474;28;20041;-52
2021/09/21 10:25:27;;;;;;;4.53;2.72;;;;;;;21.49;37.13;101674.63;5057284;28;20044;-52
2021/09/21 10:28:18;;;;;;;5.03;3.10;;;;;;;20.98;37.50;101655.78;5057376;28;21182;-52
2021/09/21 10:30:56;;;;;;;4.43;2.78;;;;;;;21.13;38.60;101670.00;5052918;28;20053;-51
2021/09/21 10:33:24;;;;;;;4.65;2.47;;;;;;;21.33;38.45;101675.72;5060994;28;20048;-52
2021/09/21 10:35:52;;;;;;;6.07;3.15;;;;;;;21.35;38.26;101673.78;5059697;28;20048;-51
2021/09/21 10:38:19;;;;;;;5.90;2.80;;;;;;;21.54;39.08;101684.09;5059545;28;20045;-53
2021/09/21 10:40:52;;;;;;;3.47;2.90;;;;;;;21.07;37.76;101681.22;5062681;28;20075;-51
2021/09/21 10:43:32;;;;;;;4.55;3.03;;;;;;;20.11;39.27;101679.72;5055957;28;20045;-52
2021/09/21 10:46:22;;;;;;;5.20;3.50;;;;;;;20.06;39.71;101682.72;5063567;28;20052;-51
2021/09/21 10:48:49;;;;;;;;;;;;;;;20.30;38.45;101680.22;5059752;28;20073;-52
2021/09/21 10:51:16;;;;;;;4.60;2.90;;;;;;;19.84;40.14;101675.19;5055290;28;19928;-51
2021/09/21 10:53:42;;;;;;;8.10;3.50;;;;;;;19.82;40.20;101676.28;5061673;28;20524;-52
2021/09/21 10:56:15;;;;;;;5.60;2.97;;;;;;;19.14;39.86;101678.81;5058783;28;20053;-51
2021/09/21 10:58:53;;;;;;;3.67;2.95;;;;;;;19.46;41.62;101682.16;5057770;28;20045;-52
2021/09/21 11:01:19;;;;;;;5.63;3.20;;;;;;;20.37;42.17;101678.88;5054083;28;20526;-51
2021/09/21 11:03:47;;;;;;;5.55;3.05;;;;;;;21.28;39.18;101685.09;5056838;28;20055;-52
2021/09/21 11:06:15;;;;;;;3.53;3.08;;;;;;;22.02;35.00;101693.16;5053467;28;20379;-51
2021/09/21 11:08:44;;;;;;;3.72;2.90;;;;;;;21.73;34.88;101702.47;5055086;28;20045;-52
2021/09/21 11:11:11;;;;;;;3.35;2.63;;;;;;;21.26;35.50;101695.13;5053564;28;20514;-51
2021/09/21 11:13:40;;;;;;;5.28;3.15;;;;;;;20.60;37.02;101697.00;5053899;28;20044;-52
2021/09/21 11:16:12;;;;;;;4.50;2.90;;;;;;;20.14;40.62;101692.97;5056302;28;20045;-51
2021/09/21 11:18:43;;;;;;;3.85;2.90;;;;;;;19.96;39.22;101700.44;5051875;28;20040;-52
2021/09/21 11:21:12;;;;;;;4.97;3.03;;;;;;;19.47;41.05;101700.00;5056235;28;20117;-52
2021/09/21 11:23:42;;;;;;;4.35;3.00;;;;;;;19.39;41.80;101697.78;5053908;28;20040;-53
2021/09/21 11:26:11;;;;;;;4.38;2.83;;;;;;;19.48;41.73;101697.22;5057750;28;20509;-52
2021/09/21 11:28:46;;;;;;;4.65;3.13;;;;;;;19.55;41.81;101697.72;5057608;28;20044;-51
2021/09/21 11:31:13;;;;;;;5.43;2.92;;;;;;;19.56;41.30;101702.13;5060505;28;20522;-52
2021/09/21 11:33:41;;;;;;;7.53;3.10;;;;;;;19.46;40.04;101703.66;5052891;28;20565;-51
2021/09/21 11:36:11;;;;;;;5.85;3.13;;;;;;;19.11;42.48;101704.03;5053420;28;20127;-53
2021/09/21 11:38:41;;;;;;;6.78;3.10;;;;;;;18.93;41.20;101694.41;5058197;28;20640;-52
2021/09/21 11:41:09;;;;;;;3.80;2.72;;;;;;;18.94;42.59;101714.94;5053148;28;20110;-50
2021/09/21 11:43:37;;;;;;;4.10;2.55;;;;;;;18.89;39.93;101711.66;5056983;28;20048;-52
2021/09/21 11:46:29;;;;;;;3.58;3.13;;;;;;;18.69;41.14;101712.03;5056376;28;20518;-53
2021/09/21 11:48:57;;;;;;;3.75;3.05;;;;;;;18.41;41.86;101708.25;5052309;28;20536;-52